Holly Ann — WDE9094 — position and weather

sailwx.info

Track history (hours):
 
Tides and Currents Weather Stations Pressure Air Temp Water Temp Dewpoint Dewpoint Depression Visibility Wind Speed Wind Dir Waves Ship Positions

Holly Ann

Owner: Manke Tug and Barge Co., Inc., Shelton, WA. More information available from US FCC via Universal Licensing System and Coast Guard Vessel Documentation Center.

Last reported at 2014-Dec-19 11:33 UTC. Time now 2014-Dec-19 12:17 UTC.
Position N 47°34' W 122°21'.

; draft 4.5 m.

Type: Towing. MMSI: 367413350.

Date/timePositionNaut miles runAvg speedWind from/ knotsBaromVisibWave heightAir tempDewpointWater temp
2014-Dec-19 11:33N 47°34' W 122°21'0 0.0
2014-Dec-19 09:33N 47°34' W 122°21'0 0.0
2014-Dec-19 08:33N 47°34' W 122°21'0 0.1
2014-Dec-19 07:33N 47°34' W 122°21'3 3.1
2014-Dec-19 06:33N 47°34' W 122°26'5 5.0
2014-Dec-19 05:33N 47°29' W 122°24'5 5.5
2014-Dec-19 04:33N 47°24' W 122°21'5 4.7
2014-Dec-19 03:33N 47°20' W 122°25'5 5.3
2014-Dec-19 02:33N 47°20' W 122°33'7 7.4
2014-Dec-19 01:33N 47°13' W 122°35'6 6.0
2014-Dec-19 00:30N 47°08' W 122°40'7 5.8
2014-Dec-18 23:21N 47°11' W 122°49'  
2014-Dec-16 17:28N 47°12' W 122°38'8 9.0
2014-Dec-16 16:33N 47°19' W 122°33'9 8.6
2014-Dec-16 15:33N 47°28' W 122°31'9 8.7
2014-Dec-16 14:33N 47°35' W 122°25'3 3.4
2014-Dec-16 13:33N 47°33' W 122°21'0 0.0
2014-Dec-16 12:33N 47°33' W 122°21'0 0.0
2014-Dec-16 11:33N 47°33' W 122°21'0 0.0
2014-Dec-16 10:33N 47°33' W 122°21'0 0.0
2014-Dec-16 09:33N 47°33' W 122°21'0 0.0
2014-Dec-16 08:33N 47°33' W 122°21'0 0.0
2014-Dec-16 07:33N 47°33' W 122°21'0 0.0
2014-Dec-16 06:33N 47°33' W 122°21'0 0.0
2014-Dec-16 05:33N 47°33' W 122°21'0 0.0
2014-Dec-16 04:33N 47°33' W 122°21'0 0.0
2014-Dec-16 03:32N 47°33' W 122°21'0 0.0
2014-Dec-16 02:33N 47°33' W 122°21'3 2.4
2014-Dec-16 01:30N 47°36' W 122°22'6 6.2
2014-Dec-16 00:33N 47°32' W 122°29'8 8.0
2014-Dec-15 23:33N 47°24' W 122°32'9 8.8
2014-Dec-15 22:33N 47°15' W 122°34'10 7.5
2014-Dec-15 21:10N 47°10' W 122°47'  
2014-Dec-10 21:23N 47°32' W 122°28'5 5.7
2014-Dec-10 20:29N 47°34' W 122°21'0 0.2
2014-Dec-10 19:33N 47°34' W 122°21'0 0.0
2014-Dec-10 18:33N 47°34' W 122°21'0 0.0
2014-Dec-10 17:33N 47°34' W 122°21'0 0.0
2014-Dec-10 16:33N 47°34' W 122°21'0 0.0
2014-Dec-10 15:33N 47°34' W 122°21'0 0.0
2014-Dec-10 14:33N 47°34' W 122°21'0 0.0
2014-Dec-10 13:33N 47°34' W 122°21'0 0.0
2014-Dec-10 12:33N 47°34' W 122°21'0 0.1
2014-Dec-10 11:33N 47°34' W 122°21'3 2.5
2014-Dec-10 10:33N 47°36' W 122°24'2 2.2
2014-Dec-10 09:33N 47°34' W 122°26'3 3.0
2014-Dec-10 08:33N 47°32' W 122°28'4 3.8
2014-Dec-10 07:33N 47°28' W 122°30'5 4.8
2014-Dec-10 06:33N 47°24' W 122°32'7 7.3
2014-Dec-10 05:33N 47°16' W 122°33'  
Track history (hours):
 
Tides and Currents Weather Stations Pressure Air Temp Water Temp Dewpoint Dewpoint Depression Visibility Wind Speed Wind Dir Waves Ship Positions

Holly Ann

Owner: Manke Tug and Barge Co., Inc., Shelton, WA. More information available from US FCC via Universal Licensing System and Coast Guard Vessel Documentation Center.

Last reported at 2014-Dec-19 11:33 UTC. Time now 2014-Dec-19 12:17 UTC.
Position N 47°34' W 122°21'.

; draft 4.5 m.

Type: Towing. MMSI: 367413350.

Date/timePositionNaut miles runAvg speedWind from/ knotsBaromVisibWave heightAir tempDewpointWater temp
2014-Dec-19 11:33N 47°34' W 122°21'0 0.0
2014-Dec-19 09:33N 47°34' W 122°21'0 0.0
2014-Dec-19 08:33N 47°34' W 122°21'0 0.1
2014-Dec-19 07:33N 47°34' W 122°21'3 3.1
2014-Dec-19 06:33N 47°34' W 122°26'5 5.0
2014-Dec-19 05:33N 47°29' W 122°24'5 5.5
2014-Dec-19 04:33N 47°24' W 122°21'5 4.7
2014-Dec-19 03:33N 47°20' W 122°25'5 5.3
2014-Dec-19 02:33N 47°20' W 122°33'7 7.4
2014-Dec-19 01:33N 47°13' W 122°35'6 6.0
2014-Dec-19 00:30N 47°08' W 122°40'7 5.8
2014-Dec-18 23:21N 47°11' W 122°49'  
2014-Dec-16 17:28N 47°12' W 122°38'8 9.0
2014-Dec-16 16:33N 47°19' W 122°33'9 8.6
2014-Dec-16 15:33N 47°28' W 122°31'9 8.7
2014-Dec-16 14:33N 47°35' W 122°25'3 3.4
2014-Dec-16 13:33N 47°33' W 122°21'0 0.0
2014-Dec-16 12:33N 47°33' W 122°21'0 0.0
2014-Dec-16 11:33N 47°33' W 122°21'0 0.0
2014-Dec-16 10:33N 47°33' W 122°21'0 0.0
2014-Dec-16 09:33N 47°33' W 122°21'0 0.0
2014-Dec-16 08:33N 47°33' W 122°21'0 0.0
2014-Dec-16 07:33N 47°33' W 122°21'0 0.0
2014-Dec-16 06:33N 47°33' W 122°21'0 0.0
2014-Dec-16 05:33N 47°33' W 122°21'0 0.0
2014-Dec-16 04:33N 47°33' W 122°21'0 0.0
2014-Dec-16 03:32N 47°33' W 122°21'0 0.0
2014-Dec-16 02:33N 47°33' W 122°21'3 2.4
2014-Dec-16 01:30N 47°36' W 122°22'6 6.2
2014-Dec-16 00:33N 47°32' W 122°29'8 8.0
2014-Dec-15 23:33N 47°24' W 122°32'9 8.8
2014-Dec-15 22:33N 47°15' W 122°34'10 7.5
2014-Dec-15 21:10N 47°10' W 122°47'  
2014-Dec-10 21:23N 47°32' W 122°28'5 5.7
2014-Dec-10 20:29N 47°34' W 122°21'0 0.2
2014-Dec-10 19:33N 47°34' W 122°21'0 0.0
2014-Dec-10 18:33N 47°34' W 122°21'0 0.0
2014-Dec-10 17:33N 47°34' W 122°21'0 0.0
2014-Dec-10 16:33N 47°34' W 122°21'0 0.0
2014-Dec-10 15:33N 47°34' W 122°21'0 0.0
2014-Dec-10 14:33N 47°34' W 122°21'0 0.0
2014-Dec-10 13:33N 47°34' W 122°21'0 0.0
2014-Dec-10 12:33N 47°34' W 122°21'0 0.1
2014-Dec-10 11:33N 47°34' W 122°21'3 2.5
2014-Dec-10 10:33N 47°36' W 122°24'2 2.2
2014-Dec-10 09:33N 47°34' W 122°26'3 3.0
2014-Dec-10 08:33N 47°32' W 122°28'4 3.8
2014-Dec-10 07:33N 47°28' W 122°30'5 4.8
2014-Dec-10 06:33N 47°24' W 122°32'7 7.3
2014-Dec-10 05:33N 47°16' W 122°33'  

Dump ship's entire track history